sensor_id;sensor_type;location;lat;lon;timestamp;temperature;humidity
49236;DHT22;35067;48.134;8.378;2022-09-09T00:04:03;12.30;96.50
49236;DHT22;35067;48.134;8.378;2022-09-09T00:06:12;12.30;96.90
49236;DHT22;35067;48.134;8.378;2022-09-09T00:08:22;12.30;97.30
49236;DHT22;35067;48.134;8.378;2022-09-09T00:10:34;12.30;97.20
49236;DHT22;35067;48.134;8.378;2022-09-09T00:14:54;12.10;97.90
49236;DHT22;35067;48.134;8.378;2022-09-09T00:16:58;12.10;98.00
49236;DHT22;35067;48.134;8.378;2022-09-09T00:21:14;12.10;97.80
49236;DHT22;35067;48.134;8.378;2022-09-09T00:23:28;12.10;98.30
49236;DHT22;35067;48.134;8.378;2022-09-09T00:25:37;12.00;98.50
49236;DHT22;35067;48.134;8.378;2022-09-09T00:27:48;12.10;98.70
49236;DHT22;35067;48.134;8.378;2022-09-09T00:30:12;12.10;98.80
49236;DHT22;35067;48.134;8.378;2022-09-09T00:32:16;12.00;98.90
49236;DHT22;35067;48.134;8.378;2022-09-09T00:34:22;12.00;99.00
49236;DHT22;35067;48.134;8.378;2022-09-09T00:36:24;12.00;98.90
49236;DHT22;35067;48.134;8.378;2022-09-09T00:38:33;12.00;98.90
49236;DHT22;35067;48.134;8.378;2022-09-09T00:40:40;12.00;99.00
49236;DHT22;35067;48.134;8.378;2022-09-09T00:42:42;11.90;99.20
49236;DHT22;35067;48.134;8.378;2022-09-09T00:49:24;11.70;99.90
49236;DHT22;35067;48.134;8.378;2022-09-09T00:53:51;11.70;99.90
49236;DHT22;35067;48.134;8.378;2022-09-09T00:56:18;11.70;99.90
49236;DHT22;35067;48.134;8.378;2022-09-09T00:58:21;11.70;99.90
49236;DHT22;35067;48.134;8.378;2022-09-09T01:00:29;11.70;99.90
49236;DHT22;35067;48.134;8.378;2022-09-09T01:04:48;11.80;99.90
49236;DHT22;35067;48.134;8.378;2022-09-09T01:06:54;11.80;99.90
49236;DHT22;35067;48.134;8.378;2022-09-09T01:09:18;11.80;99.90
49236;DHT22;35067;48.134;8.378;2022-09-09T01:11:23;12.00;99.90
49236;DHT22;35067;48.134;8.378;2022-09-09T01:13:34;12.00;99.90
49236;DHT22;35067;48.134;8.378;2022-09-09T01:15:35;12.10;99.90
49236;DHT22;35067;48.134;8.378;2022-09-09T01:20:12;12.20;99.30
49236;DHT22;35067;48.134;8.378;2022-09-09T01:22:34;12.20;99.30
49236;DHT22;35067;48.134;8.378;2022-09-09T01:25:01;12.30;99.50
49236;DHT22;35067;48.134;8.378;2022-09-09T01:27:06;12.40;99.40
49236;DHT22;35067;48.134;8.378;2022-09-09T01:29:11;12.60;98.60
49236;DHT22;35067;48.134;8.378;2022-09-09T01:31:17;12.60;96.90
49236;DHT22;35067;48.134;8.378;2022-09-09T01:33:19;12.60;97.40
49236;DHT22;35067;48.134;8.378;2022-09-09T01:35:45;12.70;96.80
49236;DHT22;35067;48.134;8.378;2022-09-09T01:37:47;12.80;96.60
49236;DHT22;35067;48.134;8.378;2022-09-09T01:39:47;12.80;96.50
49236;DHT22;35067;48.134;8.378;2022-09-09T01:41:48;12.90;96.50
49236;DHT22;35067;48.134;8.378;2022-09-09T01:43:49;13.00;96.60
49236;DHT22;35067;48.134;8.378;2022-09-09T01:45:53;13.00;96.30
49236;DHT22;35067;48.134;8.378;2022-09-09T01:47:55;13.20;96.40
49236;DHT22;35067;48.134;8.378;2022-09-09T01:49:57;13.20;95.70
49236;DHT22;35067;48.134;8.378;2022-09-09T01:51:58;13.20;95.70
49236;DHT22;35067;48.134;8.378;2022-09-09T01:53:59;13.00;96.30
49236;DHT22;35067;48.134;8.378;2022-09-09T02:05:37;13.00;97.80
49236;DHT22;35067;48.134;8.378;2022-09-09T02:07:40;13.00;96.40
49236;DHT22;35067;48.134;8.378;2022-09-09T02:09:44;12.80;96.40
49236;DHT22;35067;48.134;8.378;2022-09-09T02:11:49;12.70;95.70
49236;DHT22;35067;48.134;8.378;2022-09-09T02:14:05;12.50;97.00
49236;DHT22;35067;48.134;8.378;2022-09-09T02:16:14;12.70;97.20
49236;DHT22;35067;48.134;8.378;2022-09-09T02:18:21;12.80;97.20
49236;DHT22;35067;48.134;8.378;2022-09-09T02:20:24;12.80;97.30
49236;DHT22;35067;48.134;8.378;2022-09-09T02:22:27;12.70;99.00
49236;DHT22;35067;48.134;8.378;2022-09-09T02:24:33;12.70;99.30
49236;DHT22;35067;48.134;8.378;2022-09-09T02:26:40;12.70;99.60
49236;DHT22;35067;48.134;8.378;2022-09-09T02:28:42;12.60;99.90
49236;DHT22;35067;48.134;8.378;2022-09-09T02:30:43;12.40;99.90
49236;DHT22;35067;48.134;8.378;2022-09-09T02:32:48;12.30;99.90
49236;DHT22;35067;48.134;8.378;2022-09-09T02:34:57;12.30;99.90
49236;DHT22;35067;48.134;8.378;2022-09-09T02:37:01;12.40;99.90
49236;DHT22;35067;48.134;8.378;2022-09-09T02:39:05;12.50;99.90
49236;DHT22;35067;48.134;8.378;2022-09-09T02:41:07;12.60;99.90
49236;DHT22;35067;48.134;8.378;2022-09-09T02:43:08;12.50;99.90
49236;DHT22;35067;48.134;8.378;2022-09-09T02:45:10;12.50;99.90
49236;DHT22;35067;48.134;8.378;2022-09-09T02:49:47;12.50;99.90
49236;DHT22;35067;48.134;8.378;2022-09-09T02:52:01;12.60;99.90
49236;DHT22;35067;48.134;8.378;2022-09-09T02:54:28;12.40;99.90
49236;DHT22;35067;48.134;8.378;2022-09-09T02:56:38;12.50;99.90
49236;DHT22;35067;48.134;8.378;2022-09-09T02:58:39;12.30;99.90
49236;DHT22;35067;48.134;8.378;2022-09-09T03:00:40;12.30;99.90
49236;DHT22;35067;48.134;8.378;2022-09-09T03:02:41;12.20;99.90
49236;DHT22;35067;48.134;8.378;2022-09-09T03:04:42;12.20;99.90
49236;DHT22;35067;48.134;8.378;2022-09-09T03:06:44;12.30;99.90
49236;DHT22;35067;48.134;8.378;2022-09-09T03:08:45;12.40;99.90
49236;DHT22;35067;48.134;8.378;2022-09-09T03:10:45;12.40;99.90
49236;DHT22;35067;48.134;8.378;2022-09-09T03:12:46;12.40;99.90
49236;DHT22;35067;48.134;8.378;2022-09-09T03:14:46;12.40;99.90
49236;DHT22;35067;48.134;8.378;2022-09-09T03:16:47;12.40;99.90
49236;DHT22;35067;48.134;8.378;2022-09-09T03:18:48;12.40;99.90
49236;DHT22;35067;48.134;8.378;2022-09-09T03:20:49;12.40;99.90
49236;DHT22;35067;48.134;8.378;2022-09-09T03:22:49;12.40;99.90
49236;DHT22;35067;48.134;8.378;2022-09-09T03:24:50;12.40;99.90
49236;DHT22;35067;48.134;8.378;2022-09-09T03:26:51;12.40;99.90
49236;DHT22;35067;48.134;8.378;2022-09-09T03:28:52;12.40;99.90
49236;DHT22;35067;48.134;8.378;2022-09-09T03:30:58;12.40;99.90
49236;DHT22;35067;48.134;8.378;2022-09-09T03:32:59;12.50;99.90
49236;DHT22;35067;48.134;8.378;2022-09-09T03:34:59;12.50;99.90
49236;DHT22;35067;48.134;8.378;2022-09-09T03:37:00;12.60;99.90
49236;DHT22;35067;48.134;8.378;2022-09-09T03:39:01;12.60;99.90
49236;DHT22;35067;48.134;8.378;2022-09-09T03:41:03;12.70;99.90
49236;DHT22;35067;48.134;8.378;2022-09-09T03:43:04;12.80;99.90
49236;DHT22;35067;48.134;8.378;2022-09-09T03:45:06;12.80;99.90
49236;DHT22;35067;48.134;8.378;2022-09-09T03:47:08;12.90;99.90
49236;DHT22;35067;48.134;8.378;2022-09-09T03:49:08;13.00;99.90
49236;DHT22;35067;48.134;8.378;2022-09-09T03:51:10;13.00;99.90
49236;DHT22;35067;48.134;8.378;2022-09-09T03:53:11;13.10;99.90
49236;DHT22;35067;48.134;8.378;2022-09-09T03:55:11;13.10;99.90
49236;DHT22;35067;48.134;8.378;2022-09-09T03:57:12;13.00;99.90
49236;DHT22;35067;48.134;8.378;2022-09-09T03:59:15;12.90;99.90
49236;DHT22;35067;48.134;8.378;2022-09-09T04:01:16;13.00;99.90
49236;DHT22;35067;48.134;8.378;2022-09-09T04:03:18;13.00;99.90
49236;DHT22;35067;48.134;8.378;2022-09-09T04:05:18;13.00;99.90
49236;DHT22;35067;48.134;8.378;2022-09-09T04:07:19;13.00;99.90
49236;DHT22;35067;48.134;8.378;2022-09-09T04:09:19;13.10;99.90
49236;DHT22;35067;48.134;8.378;2022-09-09T04:11:20;13.10;99.90
49236;DHT22;35067;48.134;8.378;2022-09-09T04:13:21;13.00;99.90
49236;DHT22;35067;48.134;8.378;2022-09-09T04:15:21;13.10;99.90
49236;DHT22;35067;48.134;8.378;2022-09-09T04:17:22;13.00;99.90
49236;DHT22;35067;48.134;8.378;2022-09-09T04:19:23;13.10;99.90
49236;DHT22;35067;48.134;8.378;2022-09-09T04:21:23;13.10;99.90
49236;DHT22;35067;48.134;8.378;2022-09-09T04:23:25;13.10;99.90
49236;DHT22;35067;48.134;8.378;2022-09-09T04:25:26;13.10;99.90
49236;DHT22;35067;48.134;8.378;2022-09-09T04:27:26;13.10;99.90
49236;DHT22;35067;48.134;8.378;2022-09-09T04:29:27;13.10;99.90
49236;DHT22;35067;48.134;8.378;2022-09-09T04:31:27;13.10;99.90
49236;DHT22;35067;48.134;8.378;2022-09-09T04:33:28;13.10;99.90
49236;DHT22;35067;48.134;8.378;2022-09-09T04:35:29;13.10;99.90
49236;DHT22;35067;48.134;8.378;2022-09-09T04:37:29;13.10;99.90
49236;DHT22;35067;48.134;8.378;2022-09-09T04:39:30;13.10;99.90
49236;DHT22;35067;48.134;8.378;2022-09-09T04:41:31;13.10;99.90
49236;DHT22;35067;48.134;8.378;2022-09-09T04:43:31;13.10;99.90
49236;DHT22;35067;48.134;8.378;2022-09-09T04:45:32;13.10;99.90
49236;DHT22;35067;48.134;8.378;2022-09-09T04:47:33;13.10;99.90
49236;DHT22;35067;48.134;8.378;2022-09-09T04:49:35;13.20;99.90
49236;DHT22;35067;48.134;8.378;2022-09-09T04:51:36;13.30;99.90
49236;DHT22;35067;48.134;8.378;2022-09-09T04:53:37;13.20;99.90
49236;DHT22;35067;48.134;8.378;2022-09-09T04:55:38;13.10;99.90
49236;DHT22;35067;48.134;8.378;2022-09-09T04:57:39;13.10;99.90
49236;DHT22;35067;48.134;8.378;2022-09-09T04:59:40;13.20;99.90
49236;DHT22;35067;48.134;8.378;2022-09-09T05:01:40;13.40;99.90
49236;DHT22;35067;48.134;8.378;2022-09-09T05:03:41;13.40;99.90
49236;DHT22;35067;48.134;8.378;2022-09-09T05:05:42;13.50;99.90
49236;DHT22;35067;48.134;8.378;2022-09-09T05:07:42;13.50;99.90
49236;DHT22;35067;48.134;8.378;2022-09-09T05:09:43;13.40;99.90
49236;DHT22;35067;48.134;8.378;2022-09-09T05:11:45;13.50;99.90
49236;DHT22;35067;48.134;8.378;2022-09-09T05:13:47;13.50;99.90
49236;DHT22;35067;48.134;8.378;2022-09-09T05:15:54;13.40;99.90
49236;DHT22;35067;48.134;8.378;2022-09-09T05:17:58;13.20;99.90
49236;DHT22;35067;48.134;8.378;2022-09-09T05:20:00;13.30;99.90
49236;DHT22;35067;48.134;8.378;2022-09-09T05:22:01;13.30;99.90
49236;DHT22;35067;48.134;8.378;2022-09-09T05:24:02;13.30;99.90
49236;DHT22;35067;48.134;8.378;2022-09-09T05:26:04;13.10;99.90
49236;DHT22;35067;48.134;8.378;2022-09-09T05:28:05;13.20;99.90
49236;DHT22;35067;48.134;8.378;2022-09-09T05:30:08;13.20;99.90
49236;DHT22;35067;48.134;8.378;2022-09-09T05:32:09;13.20;99.90
49236;DHT22;35067;48.134;8.378;2022-09-09T05:34:10;13.20;99.90
49236;DHT22;35067;48.134;8.378;2022-09-09T05:36:16;13.20;99.90
49236;DHT22;35067;48.134;8.378;2022-09-09T05:38:17;13.10;99.90
49236;DHT22;35067;48.134;8.378;2022-09-09T05:40:18;13.10;99.90
49236;DHT22;35067;48.134;8.378;2022-09-09T05:42:19;13.10;99.90
49236;DHT22;35067;48.134;8.378;2022-09-09T05:44:20;13.30;99.90
49236;DHT22;35067;48.134;8.378;2022-09-09T05:46:22;13.30;99.90
49236;DHT22;35067;48.134;8.378;2022-09-09T05:48:23;13.40;99.90
49236;DHT22;35067;48.134;8.378;2022-09-09T05:50:23;13.50;99.90
49236;DHT22;35067;48.134;8.378;2022-09-09T05:52:24;13.50;99.90
49236;DHT22;35067;48.134;8.378;2022-09-09T05:54:26;13.50;99.90
49236;DHT22;35067;48.134;8.378;2022-09-09T05:56:28;13.50;99.90
49236;DHT22;35067;48.134;8.378;2022-09-09T05:58:33;13.60;99.90
49236;DHT22;35067;48.134;8.378;2022-09-09T06:00:34;13.60;99.90
49236;DHT22;35067;48.134;8.378;2022-09-09T06:02:34;13.80;99.90
49236;DHT22;35067;48.134;8.378;2022-09-09T06:04:37;13.70;99.90
49236;DHT22;35067;48.134;8.378;2022-09-09T06:06:38;13.60;99.90
49236;DHT22;35067;48.134;8.378;2022-09-09T06:08:41;13.70;99.90
49236;DHT22;35067;48.134;8.378;2022-09-09T06:10:44;14.00;99.90
49236;DHT22;35067;48.134;8.378;2022-09-09T06:12:45;14.10;99.90
49236;DHT22;35067;48.134;8.378;2022-09-09T06:14:45;14.00;99.90
49236;DHT22;35067;48.134;8.378;2022-09-09T06:16:46;14.00;99.90
49236;DHT22;35067;48.134;8.378;2022-09-09T06:18:46;14.10;99.90
49236;DHT22;35067;48.134;8.378;2022-09-09T06:20:59;14.30;99.90
49236;DHT22;35067;48.134;8.378;2022-09-09T06:23:00;14.50;99.30
49236;DHT22;35067;48.134;8.378;2022-09-09T06:25:01;14.50;98.50
49236;DHT22;35067;48.134;8.378;2022-09-09T06:27:02;14.50;99.00
49236;DHT22;35067;48.134;8.378;2022-09-09T06:29:03;14.50;97.90
49236;DHT22;35067;48.134;8.378;2022-09-09T06:31:06;14.60;98.70
49236;DHT22;35067;48.134;8.378;2022-09-09T06:33:07;14.70;98.20
49236;DHT22;35067;48.134;8.378;2022-09-09T06:35:08;14.70;98.90
49236;DHT22;35067;48.134;8.378;2022-09-09T06:37:08;14.60;99.00
49236;DHT22;35067;48.134;8.378;2022-09-09T06:39:09;14.70;99.40
49236;DHT22;35067;48.134;8.378;2022-09-09T06:41:13;14.80;99.40
49236;DHT22;35067;48.134;8.378;2022-09-09T06:43:13;14.70;99.90
49236;DHT22;35067;48.134;8.378;2022-09-09T06:45:14;14.70;99.90
49236;DHT22;35067;48.134;8.378;2022-09-09T06:47:15;14.70;99.80
49236;DHT22;35067;48.134;8.378;2022-09-09T06:49:15;14.50;99.90
49236;DHT22;35067;48.134;8.378;2022-09-09T06:51:18;14.40;99.90
49236;DHT22;35067;48.134;8.378;2022-09-09T06:53:19;14.30;99.90
49236;DHT22;35067;48.134;8.378;2022-09-09T06:55:20;14.20;99.90
49236;DHT22;35067;48.134;8.378;2022-09-09T06:57:21;14.20;99.90
49236;DHT22;35067;48.134;8.378;2022-09-09T06:59:22;14.20;99.90
49236;DHT22;35067;48.134;8.378;2022-09-09T07:01:25;14.10;99.90
49236;DHT22;35067;48.134;8.378;2022-09-09T07:03:26;14.10;99.90
49236;DHT22;35067;48.134;8.378;2022-09-09T07:05:26;14.30;99.90
49236;DHT22;35067;48.134;8.378;2022-09-09T07:07:27;14.20;99.90
49236;DHT22;35067;48.134;8.378;2022-09-09T07:09:27;14.10;99.90
49236;DHT22;35067;48.134;8.378;2022-09-09T07:11:32;14.20;99.90
49236;DHT22;35067;48.134;8.378;2022-09-09T07:13:33;14.30;99.90
49236;DHT22;35067;48.134;8.378;2022-09-09T07:15:34;14.40;99.90
49236;DHT22;35067;48.134;8.378;2022-09-09T07:17:35;14.40;99.90
49236;DHT22;35067;48.134;8.378;2022-09-09T07:19:35;14.40;99.90
49236;DHT22;35067;48.134;8.378;2022-09-09T07:21:37;14.50;99.90
49236;DHT22;35067;48.134;8.378;2022-09-09T07:23:38;14.50;99.90
49236;DHT22;35067;48.134;8.378;2022-09-09T07:25:44;14.60;99.90
49236;DHT22;35067;48.134;8.378;2022-09-09T07:27:45;14.70;99.90
49236;DHT22;35067;48.134;8.378;2022-09-09T07:29:46;14.70;99.90
49236;DHT22;35067;48.134;8.378;2022-09-09T07:31:47;14.70;99.90
49236;DHT22;35067;48.134;8.378;2022-09-09T07:33:48;14.70;99.90
49236;DHT22;35067;48.134;8.378;2022-09-09T07:35:49;14.70;99.90
49236;DHT22;35067;48.134;8.378;2022-09-09T07:37:50;14.70;99.90
49236;DHT22;35067;48.134;8.378;2022-09-09T07:39:50;14.80;99.90
49236;DHT22;35067;48.134;8.378;2022-09-09T07:41:51;14.80;99.90
49236;DHT22;35067;48.134;8.378;2022-09-09T07:43:52;14.90;99.90
49236;DHT22;35067;48.134;8.378;2022-09-09T07:45:58;15.10;99.90
49236;DHT22;35067;48.134;8.378;2022-09-09T07:47:58;15.10;99.40
49236;DHT22;35067;48.134;8.378;2022-09-09T07:49:59;15.30;99.90
49236;DHT22;35067;48.134;8.378;2022-09-09T07:52:00;15.70;99.50
49236;DHT22;35067;48.134;8.378;2022-09-09T07:54:05;15.70;99.20
49236;DHT22;35067;48.134;8.378;2022-09-09T07:56:08;15.90;97.90
49236;DHT22;35067;48.134;8.378;2022-09-09T07:58:09;16.00;98.40
49236;DHT22;35067;48.134;8.378;2022-09-09T08:00:10;16.00;93.80
49236;DHT22;35067;48.134;8.378;2022-09-09T08:02:11;15.80;92.30
49236;DHT22;35067;48.134;8.378;2022-09-09T08:04:18;15.80;91.70
49236;DHT22;35067;48.134;8.378;2022-09-09T08:06:19;16.00;91.80
49236;DHT22;35067;48.134;8.378;2022-09-09T08:08:19;16.40;91.10
49236;DHT22;35067;48.134;8.378;2022-09-09T08:10:20;16.50;86.60
49236;DHT22;35067;48.134;8.378;2022-09-09T08:12:20;16.50;84.00
49236;DHT22;35067;48.134;8.378;2022-09-09T08:14:21;16.80;83.60
49236;DHT22;35067;48.134;8.378;2022-09-09T08:16:28;16.90;83.60
49236;DHT22;35067;48.134;8.378;2022-09-09T08:18:30;16.70;81.20
49236;DHT22;35067;48.134;8.378;2022-09-09T08:20:31;16.30;81.60
49236;DHT22;35067;48.134;8.378;2022-09-09T08:22:31;16.30;82.00
49236;DHT22;35067;48.134;8.378;2022-09-09T08:24:32;16.50;79.50
49236;DHT22;35067;48.134;8.378;2022-09-09T08:26:35;16.90;79.50
49236;DHT22;35067;48.134;8.378;2022-09-09T08:28:36;17.00;77.10
49236;DHT22;35067;48.134;8.378;2022-09-09T08:30:36;17.10;78.60
49236;DHT22;35067;48.134;8.378;2022-09-09T08:32:37;17.10;75.70
49236;DHT22;35067;48.134;8.378;2022-09-09T08:34:38;16.80;75.70
49236;DHT22;35067;48.134;8.378;2022-09-09T08:36:41;16.30;76.40
49236;DHT22;35067;48.134;8.378;2022-09-09T08:38:43;16.30;77.70
49236;DHT22;35067;48.134;8.378;2022-09-09T08:40:46;16.10;77.40
49236;DHT22;35067;48.134;8.378;2022-09-09T08:42:52;16.00;77.80
49236;DHT22;35067;48.134;8.378;2022-09-09T08:55:48;16.40;78.70
49236;DHT22;35067;48.134;8.378;2022-09-09T08:57:26;16.60;74.00
49236;DHT22;35067;48.134;8.378;2022-09-09T08:59:27;16.90;73.60
49236;DHT22;35067;48.134;8.378;2022-09-09T09:01:50;17.20;70.10
49236;DHT22;35067;48.134;8.378;2022-09-09T09:06:26;17.70;70.50
49236;DHT22;35067;48.134;8.378;2022-09-09T09:08:48;17.10;70.50
49236;DHT22;35067;48.134;8.378;2022-09-09T09:10:55;16.80;70.10
49236;DHT22;35067;48.134;8.378;2022-09-09T09:12:57;16.70;71.90
49236;DHT22;35067;48.134;8.378;2022-09-09T09:14:59;16.50;73.70
49236;DHT22;35067;48.134;8.378;2022-09-09T09:19:03;16.80;70.10
49236;DHT22;35067;48.134;8.378;2022-09-09T09:23:26;16.80;66.30
49236;DHT22;35067;48.134;8.378;2022-09-09T09:25:39;16.90;67.40
49236;DHT22;35067;48.134;8.378;2022-09-09T09:29:48;17.40;67.10
49236;DHT22;35067;48.134;8.378;2022-09-09T09:31:54;17.40;66.80
49236;DHT22;35067;48.134;8.378;2022-09-09T09:33:56;17.50;68.10
49236;DHT22;35067;48.134;8.378;2022-09-09T09:35:58;17.50;64.30
49236;DHT22;35067;48.134;8.378;2022-09-09T09:38:00;17.20;65.70
49236;DHT22;35067;48.134;8.378;2022-09-09T09:40:13;17.40;64.50
49236;DHT22;35067;48.134;8.378;2022-09-09T09:42:16;17.40;63.60
49236;DHT22;35067;48.134;8.378;2022-09-09T09:44:28;17.30;63.80
49236;DHT22;35067;48.134;8.378;2022-09-09T09:46:29;17.30;59.90
49236;DHT22;35067;48.134;8.378;2022-09-09T09:48:30;17.40;60.40
49236;DHT22;35067;48.134;8.378;2022-09-09T09:50:31;17.60;60.10
49236;DHT22;35067;48.134;8.378;2022-09-09T09:52:32;17.60;57.20
49236;DHT22;35067;48.134;8.378;2022-09-09T09:54:39;17.60;57.80
49236;DHT22;35067;48.134;8.378;2022-09-09T09:56:43;17.80;58.70
49236;DHT22;35067;48.134;8.378;2022-09-09T10:00:52;18.10;57.10
49236;DHT22;35067;48.134;8.378;2022-09-09T10:02:53;18.80;56.50
49236;DHT22;35067;48.134;8.378;2022-09-09T10:05:13;19.40;55.20
49236;DHT22;35067;48.134;8.378;2022-09-09T10:07:21;19.70;51.20
49236;DHT22;35067;48.134;8.378;2022-09-09T10:09:23;19.70;49.50
49236;DHT22;35067;48.134;8.378;2022-09-09T10:11:46;20.10;50.00
49236;DHT22;35067;48.134;8.378;2022-09-09T10:19:17;20.10;45.50
49236;DHT22;35067;48.134;8.378;2022-09-09T10:24:22;20.10;48.00
49236;DHT22;35067;48.134;8.378;2022-09-09T10:26:55;19.80;45.00
49236;DHT22;35067;48.134;8.378;2022-09-09T10:29:02;20.40;46.30
49236;DHT22;35067;48.134;8.378;2022-09-09T10:31:27;20.50;44.20
49236;DHT22;35067;48.134;8.378;2022-09-09T10:33:51;19.70;46.70
49236;DHT22;35067;48.134;8.378;2022-09-09T10:36:32;20.00;44.90
49236;DHT22;35067;48.134;8.378;2022-09-09T10:43:01;20.40;45.90
49236;DHT22;35067;48.134;8.378;2022-09-09T10:45:20;20.30;45.30
49236;DHT22;35067;48.134;8.378;2022-09-09T10:52:16;19.90;45.80
49236;DHT22;35067;48.134;8.378;2022-09-09T10:57:33;20.50;43.60
49236;DHT22;35067;48.134;8.378;2022-09-09T10:59:42;21.10;42.70
49236;DHT22;35067;48.134;8.378;2022-09-09T11:04:22;21.50;40.70
49236;DHT22;35067;48.134;8.378;2022-09-09T11:06:31;21.90;40.80
49236;DHT22;35067;48.134;8.378;2022-09-09T11:08:38;22.20;40.50
49236;DHT22;35067;48.134;8.378;2022-09-09T11:12:58;23.20;39.80
49236;DHT22;35067;48.134;8.378;2022-09-09T11:15:29;23.70;37.30
49236;DHT22;35067;48.134;8.378;2022-09-09T11:17:40;23.40;36.80
49236;DHT22;35067;48.134;8.378;2022-09-09T11:19:44;24.20;36.70
49236;DHT22;35067;48.134;8.378;2022-09-09T11:21:47;24.10;35.80
49236;DHT22;35067;48.134;8.378;2022-09-09T11:23:54;23.00;36.80
49236;DHT22;35067;48.134;8.378;2022-09-09T11:26:00;22.00;40.90
49236;DHT22;35067;48.134;8.378;2022-09-09T11:38:52;20.90;43.80
49236;DHT22;35067;48.134;8.378;2022-09-09T11:40:59;21.20;43.30
49236;DHT22;35067;48.134;8.378;2022-09-09T11:43:13;20.60;44.40
49236;DHT22;35067;48.134;8.378;2022-09-09T11:45:28;20.10;46.20
49236;DHT22;35067;48.134;8.378;2022-09-09T11:47:30;20.40;47.80
49236;DHT22;35067;48.134;8.378;2022-09-09T11:51:42;21.50;44.30
49236;DHT22;35067;48.134;8.378;2022-09-09T11:53:53;22.90;41.50
49236;DHT22;35067;48.134;8.378;2022-09-09T12:02:30;23.90;37.60
49236;DHT22;35067;48.134;8.378;2022-09-09T12:04:37;23.70;36.40
49236;DHT22;35067;48.134;8.378;2022-09-09T12:06:56;24.30;37.60
49236;DHT22;35067;48.134;8.378;2022-09-09T12:11:48;25.00;34.70
49236;DHT22;35067;48.134;8.378;2022-09-09T12:13:57;23.20;36.90
49236;DHT22;35067;48.134;8.378;2022-09-09T12:16:01;22.10;40.00
49236;DHT22;35067;48.134;8.378;2022-09-09T12:18:07;23.60;39.10
49236;DHT22;35067;48.134;8.378;2022-09-09T12:24:54;23.20;37.30
49236;DHT22;35067;48.134;8.378;2022-09-09T12:27:11;23.30;36.90
49236;DHT22;35067;48.134;8.378;2022-09-09T12:29:28;23.70;36.90
49236;DHT22;35067;48.134;8.378;2022-09-09T12:33:40;23.70;36.30
49236;DHT22;35067;48.134;8.378;2022-09-09T12:35:51;23.60;37.10
49236;DHT22;35067;48.134;8.378;2022-09-09T12:38:01;24.90;35.50
49236;DHT22;35067;48.134;8.378;2022-09-09T12:40:06;25.30;33.70
49236;DHT22;35067;48.134;8.378;2022-09-09T12:42:20;24.10;36.30
49236;DHT22;35067;48.134;8.378;2022-09-09T12:44:26;23.60;36.90
49236;DHT22;35067;48.134;8.378;2022-09-09T12:46:34;23.40;38.00
49236;DHT22;35067;48.134;8.378;2022-09-09T12:48:39;23.60;37.50
49236;DHT22;35067;48.134;8.378;2022-09-09T12:50:48;22.80;38.80
49236;DHT22;35067;48.134;8.378;2022-09-09T12:52:52;22.40;41.50
49236;DHT22;35067;48.134;8.378;2022-09-09T12:54:55;21.80;42.50
49236;DHT22;35067;48.134;8.378;2022-09-09T12:56:57;22.60;42.00
49236;DHT22;35067;48.134;8.378;2022-09-09T12:58:58;24.30;38.70
49236;DHT22;35067;48.134;8.378;2022-09-09T13:01:00;25.00;37.90
49236;DHT22;35067;48.134;8.378;2022-09-09T13:03:17;25.80;35.50
49236;DHT22;35067;48.134;8.378;2022-09-09T13:05:47;25.50;36.30
49236;DHT22;35067;48.134;8.378;2022-09-09T13:07:49;26.40;34.30
49236;DHT22;35067;48.134;8.378;2022-09-09T13:09:50;25.20;34.50
49236;DHT22;35067;48.134;8.378;2022-09-09T13:11:53;24.30;37.40
49236;DHT22;35067;48.134;8.378;2022-09-09T13:13:58;25.20;36.40
49236;DHT22;35067;48.134;8.378;2022-09-09T13:16:00;26.30;35.40
49236;DHT22;35067;48.134;8.378;2022-09-09T13:18:06;26.70;34.40
49236;DHT22;35067;48.134;8.378;2022-09-09T13:20:17;26.10;34.20
49236;DHT22;35067;48.134;8.378;2022-09-09T13:24:34;24.80;34.90
49236;DHT22;35067;48.134;8.378;2022-09-09T13:26:35;24.70;35.50
49236;DHT22;35067;48.134;8.378;2022-09-09T13:28:35;24.30;35.00
49236;DHT22;35067;48.134;8.378;2022-09-09T13:30:37;25.10;35.40
49236;DHT22;35067;48.134;8.378;2022-09-09T13:32:41;25.70;33.10
49236;DHT22;35067;48.134;8.378;2022-09-09T13:34:53;26.00;33.30
49236;DHT22;35067;48.134;8.378;2022-09-09T13:37:07;26.10;33.20
49236;DHT22;35067;48.134;8.378;2022-09-09T13:39:22;26.20;32.60
49236;DHT22;35067;48.134;8.378;2022-09-09T13:41:25;24.00;35.60
49236;DHT22;35067;48.134;8.378;2022-09-09T13:43:38;22.30;39.10
49236;DHT22;35067;48.134;8.378;2022-09-09T13:45:53;20.60;43.00
49236;DHT22;35067;48.134;8.378;2022-09-09T13:48:08;19.50;46.70
49236;DHT22;35067;48.134;8.378;2022-09-09T13:50:22;19.20;49.00
49236;DHT22;35067;48.134;8.378;2022-09-09T13:52:23;18.60;51.00
49236;DHT22;35067;48.134;8.378;2022-09-09T13:54:24;18.50;52.00
49236;DHT22;35067;48.134;8.378;2022-09-09T13:56:25;18.70;51.70
49236;DHT22;35067;48.134;8.378;2022-09-09T13:58:26;18.80;51.10
49236;DHT22;35067;48.134;8.378;2022-09-09T14:00:30;18.70;52.10
49236;DHT22;35067;48.134;8.378;2022-09-09T14:02:31;19.00;50.80
49236;DHT22;35067;48.134;8.378;2022-09-09T14:04:32;19.30;50.20
49236;DHT22;35067;48.134;8.378;2022-09-09T14:06:34;18.70;52.90
49236;DHT22;35067;48.134;8.378;2022-09-09T14:08:37;19.00;51.60
49236;DHT22;35067;48.134;8.378;2022-09-09T14:10:38;18.40;52.20
49236;DHT22;35067;48.134;8.378;2022-09-09T14:12:39;17.50;63.00
49236;DHT22;35067;48.134;8.378;2022-09-09T14:14:40;16.50;67.10
49236;DHT22;35067;48.134;8.378;2022-09-09T14:16:42;16.30;75.60
49236;DHT22;35067;48.134;8.378;2022-09-09T14:18:43;16.30;70.80
49236;DHT22;35067;48.134;8.378;2022-09-09T14:20:44;16.70;71.20
49236;DHT22;35067;48.134;8.378;2022-09-09T14:22:45;16.90;72.00
49236;DHT22;35067;48.134;8.378;2022-09-09T14:24:45;16.70;67.80
49236;DHT22;35067;48.134;8.378;2022-09-09T14:26:46;16.70;65.50
49236;DHT22;35067;48.134;8.378;2022-09-09T14:28:48;16.90;67.40
49236;DHT22;35067;48.134;8.378;2022-09-09T14:30:50;17.30;64.80
49236;DHT22;35067;48.134;8.378;2022-09-09T14:32:50;17.80;61.80
49236;DHT22;35067;48.134;8.378;2022-09-09T14:34:51;19.30;55.00
49236;DHT22;35067;48.134;8.378;2022-09-09T14:36:52;19.60;52.60
49236;DHT22;35067;48.134;8.378;2022-09-09T14:38:52;19.30;50.80
49236;DHT22;35067;48.134;8.378;2022-09-09T14:40:53;18.00;54.30
49236;DHT22;35067;48.134;8.378;2022-09-09T14:42:54;17.50;56.90
49236;DHT22;35067;48.134;8.378;2022-09-09T14:44:56;17.60;56.60
49236;DHT22;35067;48.134;8.378;2022-09-09T14:46:56;19.10;52.60
49236;DHT22;35067;48.134;8.378;2022-09-09T14:48:58;19.70;50.50
49236;DHT22;35067;48.134;8.378;2022-09-09T14:51:17;21.20;46.30
49236;DHT22;35067;48.134;8.378;2022-09-09T14:53:19;21.60;45.20
49236;DHT22;35067;48.134;8.378;2022-09-09T14:55:20;21.80;41.30